sensor_id;sensor_type;location;lat;lon;timestamp;temperature;humidity
71672;DHT22;67659;45.554;11.812;2023-03-26T00:01:08;12.70;99.90
71672;DHT22;67659;45.554;11.812;2023-03-26T00:03:35;12.20;99.90
71672;DHT22;67659;45.554;11.812;2023-03-26T00:06:02;11.50;99.90
71672;DHT22;67659;45.554;11.812;2023-03-26T00:08:30;11.20;99.90
71672;DHT22;67659;45.554;11.812;2023-03-26T00:10:56;11.30;99.90
71672;DHT22;67659;45.554;11.812;2023-03-26T00:13:21;11.50;99.90
71672;DHT22;67659;45.554;11.812;2023-03-26T00:15:47;11.80;99.90
71672;DHT22;67659;45.554;11.812;2023-03-26T00:18:13;11.90;99.90
71672;DHT22;67659;45.554;11.812;2023-03-26T00:20:38;12.10;99.90
71672;DHT22;67659;45.554;11.812;2023-03-26T00:23:05;12.00;99.90
71672;DHT22;67659;45.554;11.812;2023-03-26T00:25:32;12.00;99.90
71672;DHT22;67659;45.554;11.812;2023-03-26T00:27:59;11.80;99.90
71672;DHT22;67659;45.554;11.812;2023-03-26T00:30:25;11.60;99.90
71672;DHT22;67659;45.554;11.812;2023-03-26T00:32:52;11.30;99.90
71672;DHT22;67659;45.554;11.812;2023-03-26T00:35:17;11.40;99.90
71672;DHT22;67659;45.554;11.812;2023-03-26T00:37:43;11.50;99.90
71672;DHT22;67659;45.554;11.812;2023-03-26T00:40:10;11.50;99.90
71672;DHT22;67659;45.554;11.812;2023-03-26T00:42:37;11.70;99.90
71672;DHT22;67659;45.554;11.812;2023-03-26T00:45:05;11.50;99.90
71672;DHT22;67659;45.554;11.812;2023-03-26T00:47:32;11.40;99.90
71672;DHT22;67659;45.554;11.812;2023-03-26T00:49:58;11.60;99.90
71672;DHT22;67659;45.554;11.812;2023-03-26T00:52:24;11.50;99.90
71672;DHT22;67659;45.554;11.812;2023-03-26T00:54:53;11.20;99.90
71672;DHT22;67659;45.554;11.812;2023-03-26T00:57:19;11.10;99.90
71672;DHT22;67659;45.554;11.812;2023-03-26T00:59:47;11.20;99.90
71672;DHT22;67659;45.554;11.812;2023-03-26T01:02:16;11.10;99.90
71672;DHT22;67659;45.554;11.812;2023-03-26T01:04:56;11.00;99.90
71672;DHT22;67659;45.554;11.812;2023-03-26T01:07:25;11.00;99.90
71672;DHT22;67659;45.554;11.812;2023-03-26T01:09:56;10.90;99.90
71672;DHT22;67659;45.554;11.812;2023-03-26T01:12:27;10.90;99.90
71672;DHT22;67659;45.554;11.812;2023-03-26T01:14:59;10.80;99.90
71672;DHT22;67659;45.554;11.812;2023-03-26T01:17:26;10.80;99.90
71672;DHT22;67659;45.554;11.812;2023-03-26T01:20:22;10.60;99.90
71672;DHT22;67659;45.554;11.812;2023-03-26T01:22:54;10.50;99.90
71672;DHT22;67659;45.554;11.812;2023-03-26T01:25:26;10.50;99.90
71672;DHT22;67659;45.554;11.812;2023-03-26T01:27:54;10.50;99.90
71672;DHT22;67659;45.554;11.812;2023-03-26T01:30:43;10.60;99.90
71672;DHT22;67659;45.554;11.812;2023-03-26T01:33:31;10.60;99.90
71672;DHT22;67659;45.554;11.812;2023-03-26T01:41:32;10.40;99.90
71672;DHT22;67659;45.554;11.812;2023-03-26T01:44:10;10.40;99.90
71672;DHT22;67659;45.554;11.812;2023-03-26T01:46:41;10.40;99.90
71672;DHT22;67659;45.554;11.812;2023-03-26T01:49:07;10.40;99.90
71672;DHT22;67659;45.554;11.812;2023-03-26T01:51:39;10.30;99.90
71672;DHT22;67659;45.554;11.812;2023-03-26T01:54:07;10.40;99.90
71672;DHT22;67659;45.554;11.812;2023-03-26T02:02:11;10.70;99.90
71672;DHT22;67659;45.554;11.812;2023-03-26T02:07:53;10.70;99.90
71672;DHT22;67659;45.554;11.812;2023-03-26T02:10:24;10.60;99.90
71672;DHT22;67659;45.554;11.812;2023-03-26T02:12:51;10.60;99.90
71672;DHT22;67659;45.554;11.812;2023-03-26T02:15:17;10.60;99.90
71672;DHT22;67659;45.554;11.812;2023-03-26T02:17:43;10.50;99.90
71672;DHT22;67659;45.554;11.812;2023-03-26T02:20:10;10.60;99.90
71672;DHT22;67659;45.554;11.812;2023-03-26T02:22:37;10.60;99.90
71672;DHT22;67659;45.554;11.812;2023-03-26T02:25:11;10.50;99.90
71672;DHT22;67659;45.554;11.812;2023-03-26T02:27:38;10.30;99.90
71672;DHT22;67659;45.554;11.812;2023-03-26T02:30:06;10.30;99.90
71672;DHT22;67659;45.554;11.812;2023-03-26T02:32:32;10.30;99.90
71672;DHT22;67659;45.554;11.812;2023-03-26T02:35:00;10.30;99.90
71672;DHT22;67659;45.554;11.812;2023-03-26T02:37:26;10.30;99.90
71672;DHT22;67659;45.554;11.812;2023-03-26T02:39:51;10.20;99.90
71672;DHT22;67659;45.554;11.812;2023-03-26T02:42:17;10.00;99.90
71672;DHT22;67659;45.554;11.812;2023-03-26T02:44:43;9.50;99.90
71672;DHT22;67659;45.554;11.812;2023-03-26T02:47:09;9.10;99.90
71672;DHT22;67659;45.554;11.812;2023-03-26T02:49:34;9.10;99.90
71672;DHT22;67659;45.554;11.812;2023-03-26T02:52:00;9.30;99.90
71672;DHT22;67659;45.554;11.812;2023-03-26T02:54:31;9.50;99.90
71672;DHT22;67659;45.554;11.812;2023-03-26T02:56:57;9.60;99.90
71672;DHT22;67659;45.554;11.812;2023-03-26T02:59:23;9.80;99.90
71672;DHT22;67659;45.554;11.812;2023-03-26T03:01:49;10.00;99.90
71672;DHT22;67659;45.554;11.812;2023-03-26T03:04:15;10.00;99.90
71672;DHT22;67659;45.554;11.812;2023-03-26T03:06:43;10.10;99.90
71672;DHT22;67659;45.554;11.812;2023-03-26T03:09:11;10.20;99.90
71672;DHT22;67659;45.554;11.812;2023-03-26T03:11:39;10.10;99.90
71672;DHT22;67659;45.554;11.812;2023-03-26T03:14:05;9.70;99.90
71672;DHT22;67659;45.554;11.812;2023-03-26T03:16:31;9.70;99.90
71672;DHT22;67659;45.554;11.812;2023-03-26T03:18:57;9.70;99.90
71672;DHT22;67659;45.554;11.812;2023-03-26T03:21:24;9.70;99.90
71672;DHT22;67659;45.554;11.812;2023-03-26T03:23:52;9.70;99.90
71672;DHT22;67659;45.554;11.812;2023-03-26T03:26:20;9.80;99.90
71672;DHT22;67659;45.554;11.812;2023-03-26T03:28:50;9.70;99.90
71672;DHT22;67659;45.554;11.812;2023-03-26T03:31:16;9.80;99.90
71672;DHT22;67659;45.554;11.812;2023-03-26T03:33:43;9.80;99.90
71672;DHT22;67659;45.554;11.812;2023-03-26T03:36:11;9.70;99.90
71672;DHT22;67659;45.554;11.812;2023-03-26T03:38:39;9.50;99.90
71672;DHT22;67659;45.554;11.812;2023-03-26T03:41:06;9.60;99.90
71672;DHT22;67659;45.554;11.812;2023-03-26T03:43:33;9.80;99.90
71672;DHT22;67659;45.554;11.812;2023-03-26T03:45:59;9.80;99.90
71672;DHT22;67659;45.554;11.812;2023-03-26T03:48:26;9.80;99.90
71672;DHT22;67659;45.554;11.812;2023-03-26T03:50:53;9.90;99.90
71672;DHT22;67659;45.554;11.812;2023-03-26T03:53:20;9.90;99.90
71672;DHT22;67659;45.554;11.812;2023-03-26T03:55:46;9.90;99.90
71672;DHT22;67659;45.554;11.812;2023-03-26T03:58:19;9.80;99.90
71672;DHT22;67659;45.554;11.812;2023-03-26T04:00:48;9.60;99.90
71672;DHT22;67659;45.554;11.812;2023-03-26T04:03:14;9.40;99.90
71672;DHT22;67659;45.554;11.812;2023-03-26T04:05:40;9.30;99.90
71672;DHT22;67659;45.554;11.812;2023-03-26T04:08:08;9.30;99.90
71672;DHT22;67659;45.554;11.812;2023-03-26T04:10:34;9.30;99.90
71672;DHT22;67659;45.554;11.812;2023-03-26T04:13:00;9.20;99.90
71672;DHT22;67659;45.554;11.812;2023-03-26T04:15:25;9.20;99.90
71672;DHT22;67659;45.554;11.812;2023-03-26T04:17:51;9.20;99.90
71672;DHT22;67659;45.554;11.812;2023-03-26T04:20:17;9.30;99.90
71672;DHT22;67659;45.554;11.812;2023-03-26T04:22:44;9.20;99.90
71672;DHT22;67659;45.554;11.812;2023-03-26T04:25:11;9.20;99.90
71672;DHT22;67659;45.554;11.812;2023-03-26T04:27:38;9.10;99.90
71672;DHT22;67659;45.554;11.812;2023-03-26T04:30:06;9.20;99.90
71672;DHT22;67659;45.554;11.812;2023-03-26T04:32:34;9.10;99.90
71672;DHT22;67659;45.554;11.812;2023-03-26T04:35:03;9.10;99.90
71672;DHT22;67659;45.554;11.812;2023-03-26T04:37:35;9.10;99.90
71672;DHT22;67659;45.554;11.812;2023-03-26T04:40:11;9.10;99.90
71672;DHT22;67659;45.554;11.812;2023-03-26T04:42:38;9.10;99.90
71672;DHT22;67659;45.554;11.812;2023-03-26T04:45:15;9.20;99.90
71672;DHT22;67659;45.554;11.812;2023-03-26T04:47:42;9.30;99.90
71672;DHT22;67659;45.554;11.812;2023-03-26T04:50:09;9.40;99.90
71672;DHT22;67659;45.554;11.812;2023-03-26T04:52:36;9.40;99.90
71672;DHT22;67659;45.554;11.812;2023-03-26T04:55:04;9.40;99.90
71672;DHT22;67659;45.554;11.812;2023-03-26T04:57:37;9.50;99.90
71672;DHT22;67659;45.554;11.812;2023-03-26T05:00:06;9.50;99.90
71672;DHT22;67659;45.554;11.812;2023-03-26T05:02:43;9.40;99.90
71672;DHT22;67659;45.554;11.812;2023-03-26T05:05:10;9.20;99.90
71672;DHT22;67659;45.554;11.812;2023-03-26T05:07:36;9.30;99.90
71672;DHT22;67659;45.554;11.812;2023-03-26T05:10:04;9.40;99.90
71672;DHT22;67659;45.554;11.812;2023-03-26T05:12:30;9.40;99.90
71672;DHT22;67659;45.554;11.812;2023-03-26T05:14:56;9.40;99.90
71672;DHT22;67659;45.554;11.812;2023-03-26T05:17:23;9.50;99.90
71672;DHT22;67659;45.554;11.812;2023-03-26T05:19:49;9.50;99.90
71672;DHT22;67659;45.554;11.812;2023-03-26T05:22:17;9.40;99.90
71672;DHT22;67659;45.554;11.812;2023-03-26T05:24:43;9.40;99.90
71672;DHT22;67659;45.554;11.812;2023-03-26T05:27:13;9.50;99.90
71672;DHT22;67659;45.554;11.812;2023-03-26T05:29:39;9.50;99.90
71672;DHT22;67659;45.554;11.812;2023-03-26T05:32:06;9.80;99.90
71672;DHT22;67659;45.554;11.812;2023-03-26T05:34:32;10.10;99.90
71672;DHT22;67659;45.554;11.812;2023-03-26T05:36:58;10.60;99.90
71672;DHT22;67659;45.554;11.812;2023-03-26T05:39:24;11.00;99.90
71672;DHT22;67659;45.554;11.812;2023-03-26T05:41:51;11.60;99.90
71672;DHT22;67659;45.554;11.812;2023-03-26T05:44:17;12.10;99.90
71672;DHT22;67659;45.554;11.812;2023-03-26T05:46:43;12.40;99.90
71672;DHT22;67659;45.554;11.812;2023-03-26T05:49:09;12.80;99.90
71672;DHT22;67659;45.554;11.812;2023-03-26T05:51:35;13.20;99.90
71672;DHT22;67659;45.554;11.812;2023-03-26T05:54:01;13.30;99.90
71672;DHT22;67659;45.554;11.812;2023-03-26T05:56:27;13.10;99.90
71672;DHT22;67659;45.554;11.812;2023-03-26T05:58:55;13.80;99.90
71672;DHT22;67659;45.554;11.812;2023-03-26T06:01:21;14.40;99.90
71672;DHT22;67659;45.554;11.812;2023-03-26T06:03:47;15.00;99.90
71672;DHT22;67659;45.554;11.812;2023-03-26T06:06:17;15.50;94.40
71672;DHT22;67659;45.554;11.812;2023-03-26T06:08:51;16.10;88.10
71672;DHT22;67659;45.554;11.812;2023-03-26T06:11:18;16.50;87.60
71672;DHT22;67659;45.554;11.812;2023-03-26T06:13:45;16.90;85.90
71672;DHT22;67659;45.554;11.812;2023-03-26T06:16:12;17.10;84.60
71672;DHT22;67659;45.554;11.812;2023-03-26T06:18:38;18.00;84.10
71672;DHT22;67659;45.554;11.812;2023-03-26T06:21:05;17.70;84.90
71672;DHT22;67659;45.554;11.812;2023-03-26T06:23:31;17.90;83.70
71672;DHT22;67659;45.554;11.812;2023-03-26T06:25:57;18.40;81.20
71672;DHT22;67659;45.554;11.812;2023-03-26T06:28:24;18.60;81.40
71672;DHT22;67659;45.554;11.812;2023-03-26T06:30:50;18.80;80.00
71672;DHT22;67659;45.554;11.812;2023-03-26T06:33:17;18.70;81.60
71672;DHT22;67659;45.554;11.812;2023-03-26T06:35:44;18.90;80.40
71672;DHT22;67659;45.554;11.812;2023-03-26T06:38:11;18.90;80.70
71672;DHT22;67659;45.554;11.812;2023-03-26T06:40:37;18.70;80.70
71672;DHT22;67659;45.554;11.812;2023-03-26T06:43:03;18.80;72.60
71672;DHT22;67659;45.554;11.812;2023-03-26T06:45:29;18.60;73.30
71672;DHT22;67659;45.554;11.812;2023-03-26T06:47:56;18.70;72.20
71672;DHT22;67659;45.554;11.812;2023-03-26T06:50:22;18.60;73.10
71672;DHT22;67659;45.554;11.812;2023-03-26T06:52:48;18.60;72.40
71672;DHT22;67659;45.554;11.812;2023-03-26T06:55:15;19.10;72.50
71672;DHT22;67659;45.554;11.812;2023-03-26T06:57:41;19.20;72.20
71672;DHT22;67659;45.554;11.812;2023-03-26T07:00:10;19.60;72.30
71672;DHT22;67659;45.554;11.812;2023-03-26T07:02:37;19.60;70.80
71672;DHT22;67659;45.554;11.812;2023-03-26T07:05:06;19.40;71.80
71672;DHT22;67659;45.554;11.812;2023-03-26T07:07:33;20.30;68.40
71672;DHT22;67659;45.554;11.812;2023-03-26T07:09:58;21.20;63.90
71672;DHT22;67659;45.554;11.812;2023-03-26T07:12:25;21.80;63.60
71672;DHT22;67659;45.554;11.812;2023-03-26T07:14:51;21.50;63.00
71672;DHT22;67659;45.554;11.812;2023-03-26T07:17:17;21.70;62.80
71672;DHT22;67659;45.554;11.812;2023-03-26T07:19:42;21.90;63.80
71672;DHT22;67659;45.554;11.812;2023-03-26T07:22:22;22.10;60.80
71672;DHT22;67659;45.554;11.812;2023-03-26T07:24:49;22.10;62.50
71672;DHT22;67659;45.554;11.812;2023-03-26T07:27:45;22.30;61.30
71672;DHT22;67659;45.554;11.812;2023-03-26T07:38:50;22.00;63.00
71672;DHT22;67659;45.554;11.812;2023-03-26T07:46:48;21.50;62.40
71672;DHT22;67659;45.554;11.812;2023-03-26T07:49:18;21.30;61.20
71672;DHT22;67659;45.554;11.812;2023-03-26T07:51:46;21.20;58.10
71672;DHT22;67659;45.554;11.812;2023-03-26T07:54:12;21.30;60.30
71672;DHT22;67659;45.554;11.812;2023-03-26T07:57:02;21.40;59.70
71672;DHT22;67659;45.554;11.812;2023-03-26T07:59:37;21.70;63.00
71672;DHT22;67659;45.554;11.812;2023-03-26T08:30:19;22.30;58.60
71672;DHT22;67659;45.554;11.812;2023-03-26T08:32:59;22.70;55.40
71672;DHT22;67659;45.554;11.812;2023-03-26T08:35:26;22.80;57.80
71672;DHT22;67659;45.554;11.812;2023-03-26T08:37:52;23.30;55.80
71672;DHT22;67659;45.554;11.812;2023-03-26T08:41:01;23.70;53.00
71672;DHT22;67659;45.554;11.812;2023-03-26T08:57:32;25.50;51.20
71672;DHT22;67659;45.554;11.812;2023-03-26T09:22:59;26.70;42.20
71672;DHT22;67659;45.554;11.812;2023-03-26T09:25:47;26.90;43.10
71672;DHT22;67659;45.554;11.812;2023-03-26T09:31:00;27.40;43.30
71672;DHT22;67659;45.554;11.812;2023-03-26T09:38:48;27.60;42.30
71672;DHT22;67659;45.554;11.812;2023-03-26T09:41:30;27.60;40.70
71672;DHT22;67659;45.554;11.812;2023-03-26T09:47:18;26.50;43.00
71672;DHT22;67659;45.554;11.812;2023-03-26T09:50:21;25.90;45.70
71672;DHT22;67659;45.554;11.812;2023-03-26T10:01:16;27.90;41.30
71672;DHT22;67659;45.554;11.812;2023-03-26T10:09:34;25.60;45.10
71672;DHT22;67659;45.554;11.812;2023-03-26T10:15:03;26.20;40.20
71672;DHT22;67659;45.554;11.812;2023-03-26T10:20:30;25.20;44.90
71672;DHT22;67659;45.554;11.812;2023-03-26T10:28:44;23.90;48.40
71672;DHT22;67659;45.554;11.812;2023-03-26T10:31:38;23.50;49.40
71672;DHT22;67659;45.554;11.812;2023-03-26T10:48:05;23.90;45.50
71672;DHT22;67659;45.554;11.812;2023-03-26T10:53:52;23.00;49.30
71672;DHT22;67659;45.554;11.812;2023-03-26T10:56:28;24.10;45.60
71672;DHT22;67659;45.554;11.812;2023-03-26T10:59:00;23.90;50.20
71672;DHT22;67659;45.554;11.812;2023-03-26T11:01:48;23.40;50.40
71672;DHT22;67659;45.554;11.812;2023-03-26T11:10:02;23.00;49.20
71672;DHT22;67659;45.554;11.812;2023-03-26T11:12:43;23.10;49.50
71672;DHT22;67659;45.554;11.812;2023-03-26T11:32:14;29.00;38.50
71672;DHT22;67659;45.554;11.812;2023-03-26T11:37:38;29.40;37.90
71672;DHT22;67659;45.554;11.812;2023-03-26T11:40:13;29.60;36.60
71672;DHT22;67659;45.554;11.812;2023-03-26T11:42:41;28.90;39.70
71672;DHT22;67659;45.554;11.812;2023-03-26T11:45:18;29.50;37.10
71672;DHT22;67659;45.554;11.812;2023-03-26T11:47:55;29.70;35.60
71672;DHT22;67659;45.554;11.812;2023-03-26T11:50:27;30.00;35.70
71672;DHT22;67659;45.554;11.812;2023-03-26T11:53:12;30.30;35.10
71672;DHT22;67659;45.554;11.812;2023-03-26T11:55:47;29.10;37.60
71672;DHT22;67659;45.554;11.812;2023-03-26T11:58:25;29.70;36.50
71672;DHT22;67659;45.554;11.812;2023-03-26T12:00:54;30.50;35.10
71672;DHT22;67659;45.554;11.812;2023-03-26T12:03:20;29.80;35.20
71672;DHT22;67659;45.554;11.812;2023-03-26T12:05:49;29.60;37.40
71672;DHT22;67659;45.554;11.812;2023-03-26T12:08:22;30.20;37.00
71672;DHT22;67659;45.554;11.812;2023-03-26T12:11:11;31.00;36.80
71672;DHT22;67659;45.554;11.812;2023-03-26T12:13:51;30.90;35.40
71672;DHT22;67659;45.554;11.812;2023-03-26T12:16:19;31.10;34.60
71672;DHT22;67659;45.554;11.812;2023-03-26T12:18:56;30.90;33.90
71672;DHT22;67659;45.554;11.812;2023-03-26T12:21:23;29.20;37.00
71672;DHT22;67659;45.554;11.812;2023-03-26T12:29:07;32.50;32.10
71672;DHT22;67659;45.554;11.812;2023-03-26T12:31:51;32.00;32.90
71672;DHT22;67659;45.554;11.812;2023-03-26T12:34:22;33.00;31.20
71672;DHT22;67659;45.554;11.812;2023-03-26T12:36:57;31.70;32.40
71672;DHT22;67659;45.554;11.812;2023-03-26T12:42:03;31.40;34.40
71672;DHT22;67659;45.554;11.812;2023-03-26T12:44:43;30.80;35.00
71672;DHT22;67659;45.554;11.812;2023-03-26T12:47:21;29.00;39.60
71672;DHT22;67659;45.554;11.812;2023-03-26T12:49:48;28.10;40.40
71672;DHT22;67659;45.554;11.812;2023-03-26T12:58:36;30.20;34.30
71672;DHT22;67659;45.554;11.812;2023-03-26T13:01:51;28.50;36.30
71672;DHT22;67659;45.554;11.812;2023-03-26T13:06:47;29.00;38.20
71672;DHT22;67659;45.554;11.812;2023-03-26T13:14:57;26.10;43.10
71672;DHT22;67659;45.554;11.812;2023-03-26T13:17:34;25.50;44.50
71672;DHT22;67659;45.554;11.812;2023-03-26T13:20:18;24.40;46.80
71672;DHT22;67659;45.554;11.812;2023-03-26T13:23:20;24.40;45.90
71672;DHT22;67659;45.554;11.812;2023-03-26T13:28:52;23.60;48.90
71672;DHT22;67659;45.554;11.812;2023-03-26T13:31:30;23.10;52.10
71672;DHT22;67659;45.554;11.812;2023-03-26T13:34:12;23.20;52.00
71672;DHT22;67659;45.554;11.812;2023-03-26T13:42:33;22.60;53.20
71672;DHT22;67659;45.554;11.812;2023-03-26T13:47:54;22.40;53.70
71672;DHT22;67659;45.554;11.812;2023-03-26T13:50:32;22.50;53.50
71672;DHT22;67659;45.554;11.812;2023-03-26T13:53:05;22.40;54.10
71672;DHT22;67659;45.554;11.812;2023-03-26T13:55:33;22.70;55.00
71672;DHT22;67659;45.554;11.812;2023-03-26T14:01:09;22.70;52.70
71672;DHT22;67659;45.554;11.812;2023-03-26T14:17:12;21.90;54.80
71672;DHT22;67659;45.554;11.812;2023-03-26T14:30:52;20.90;59.50
71672;DHT22;67659;45.554;11.812;2023-03-26T14:38:54;20.80;61.20
71672;DHT22;67659;45.554;11.812;2023-03-26T14:54:43;20.10;66.30
71672;DHT22;67659;45.554;11.812;2023-03-26T14:57:46;20.00;66.80
71672;DHT22;67659;45.554;11.812;2023-03-26T15:11:48;19.80;71.00
71672;DHT22;67659;45.554;11.812;2023-03-26T15:40:46;18.60;78.50
71672;DHT22;67659;45.554;11.812;2023-03-26T15:43:18;18.50;81.10
71672;DHT22;67659;45.554;11.812;2023-03-26T15:45:51;18.30;82.90
71672;DHT22;67659;45.554;11.812;2023-03-26T15:54:29;17.90;90.60
71672;DHT22;67659;45.554;11.812;2023-03-26T15:58:11;17.80;92.70
71672;DHT22;67659;45.554;11.812;2023-03-26T16:00:22;17.70;96.80
71672;DHT22;67659;45.554;11.812;2023-03-26T16:08:29;17.50;99.90
71672;DHT22;67659;45.554;11.812;2023-03-26T16:11:01;17.30;99.90
71672;DHT22;67659;45.554;11.812;2023-03-26T16:13:35;17.00;99.90
71672;DHT22;67659;45.554;11.812;2023-03-26T16:18:41;17.10;99.90
71672;DHT22;67659;45.554;11.812;2023-03-26T16:29:22;17.20;99.90
71672;DHT22;67659;45.554;11.812;2023-03-26T16:46:08;16.80;99.90
71672;DHT22;67659;45.554;11.812;2023-03-26T17:02:46;15.70;99.90
71672;DHT22;67659;45.554;11.812;2023-03-26T17:08:20;15.50;99.90
71672;DHT22;67659;45.554;11.812;2023-03-26T17:18:40;15.20;99.90
71672;DHT22;67659;45.554;11.812;2023-03-26T17:24:16;15.80;99.90
71672;DHT22;67659;45.554;11.812;2023-03-26T17:30:28;16.00;99.90
71672;DHT22;67659;45.554;11.812;2023-03-26T17:33:05;15.80;99.90
71672;DHT22;67659;45.554;11.812;2023-03-26T17:40:56;15.10;99.90
71672;DHT22;67659;45.554;11.812;2023-03-26T17:54:29;14.90;99.90
71672;DHT22;67659;45.554;11.812;2023-03-26T17:57:01;15.00;99.90
71672;DHT22;67659;45.554;11.812;2023-03-26T17:59:28;15.10;99.90
71672;DHT22;67659;45.554;11.812;2023-03-26T18:02:01;15.20;99.90
71672;DHT22;67659;45.554;11.812;2023-03-26T18:04:34;15.10;99.90
71672;DHT22;67659;45.554;11.812;2023-03-26T18:10:23;15.00;99.90
71672;DHT22;67659;45.554;11.812;2023-03-26T18:13:21;15.00;99.90
71672;DHT22;67659;45.554;11.812;2023-03-26T18:18:44;14.70;99.90
71672;DHT22;67659;45.554;11.812;2023-03-26T18:21:30;14.80;99.90
71672;DHT22;67659;45.554;11.812;2023-03-26T18:23:57;15.10;99.90
71672;DHT22;67659;45.554;11.812;2023-03-26T18:26:37;15.40;99.90
71672;DHT22;67659;45.554;11.812;2023-03-26T18:29:20;14.80;99.90
71672;DHT22;67659;45.554;11.812;2023-03-26T18:31:52;14.30;99.90
71672;DHT22;67659;45.554;11.812;2023-03-26T18:34:19;14.50;99.90
71672;DHT22;67659;45.554;11.812;2023-03-26T18:37:25;14.30;99.90
71672;DHT22;67659;45.554;11.812;2023-03-26T18:42:35;14.40;99.90
71672;DHT22;67659;45.554;11.812;2023-03-26T18:45:05;14.40;99.90
71672;DHT22;67659;45.554;11.812;2023-03-26T18:47:31;14.50;99.90
71672;DHT22;67659;45.554;11.812;2023-03-26T18:49:58;14.50;99.90
71672;DHT22;67659;45.554;11.812;2023-03-26T18:52:27;14.30;99.90
71672;DHT22;67659;45.554;11.812;2023-03-26T18:54:53;14.00;99.90
71672;DHT22;67659;45.554;11.812;2023-03-26T18:57:24;13.60;99.90
71672;DHT22;67659;45.554;11.812;2023-03-26T18:59:52;13.80;99.90
71672;DHT22;67659;45.554;11.812;2023-03-26T19:02:20;14.00;99.90
71672;DHT22;67659;45.554;11.812;2023-03-26T19:04:48;14.10;99.90
71672;DHT22;67659;45.554;11.812;2023-03-26T19:07:17;14.20;99.90
71672;DHT22;67659;45.554;11.812;2023-03-26T19:09:47;13.50;99.90
71672;DHT22;67659;45.554;11.812;2023-03-26T19:12:17;13.30;99.90
71672;DHT22;67659;45.554;11.812;2023-03-26T19:15:11;13.40;99.90
71672;DHT22;67659;45.554;11.812;2023-03-26T19:17:40;13.60;99.90
71672;DHT22;67659;45.554;11.812;2023-03-26T19:20:22;13.70;99.90
71672;DHT22;67659;45.554;11.812;2023-03-26T19:22:49;13.90;99.90
71672;DHT22;67659;45.554;11.812;2023-03-26T19:25:27;13.40;99.90
71672;DHT22;67659;45.554;11.812;2023-03-26T19:27:53;13.50;99.90
71672;DHT22;67659;45.554;11.812;2023-03-26T19:30:34;14.20;99.90
71672;DHT22;67659;45.554;11.812;2023-03-26T19:33:13;14.40;99.90
71672;DHT22;67659;45.554;11.812;2023-03-26T19:35:42;14.10;99.90
71672;DHT22;67659;45.554;11.812;2023-03-26T19:38:22;13.80;99.90
71672;DHT22;67659;45.554;11.812;2023-03-26T19:40:53;13.50;99.90
71672;DHT22;67659;45.554;11.812;2023-03-26T19:43:19;13.40;99.90
71672;DHT22;67659;45.554;11.812;2023-03-26T19:45:46;13.30;99.90
71672;DHT22;67659;45.554;11.812;2023-03-26T19:48:16;13.30;99.90
71672;DHT22;67659;45.554;11.812;2023-03-26T19:50:53;13.20;99.90
71672;DHT22;67659;45.554;11.812;2023-03-26T19:53:22;13.10;99.90
71672;DHT22;67659;45.554;11.812;2023-03-26T19:58:38;13.30;99.90
71672;DHT22;67659;45.554;11.812;2023-03-26T20:01:09;13.40;99.90
71672;DHT22;67659;45.554;11.812;2023-03-26T20:03:41;13.60;99.90
71672;DHT22;67659;45.554;11.812;2023-03-26T20:06:16;13.70;99.90
71672;DHT22;67659;45.554;11.812;2023-03-26T20:08:42;13.80;99.90
71672;DHT22;67659;45.554;11.812;2023-03-26T20:11:35;13.80;99.90
71672;DHT22;67659;45.554;11.812;2023-03-26T20:14:14;13.80;99.90
71672;DHT22;67659;45.554;11.812;2023-03-26T20:16:40;13.80;99.90
71672;DHT22;67659;45.554;11.812;2023-03-26T20:19:06;13.70;99.90
71672;DHT22;67659;45.554;11.812;2023-03-26T20:21:33;13.80;99.90
71672;DHT22;67659;45.554;11.812;2023-03-26T20:24:00;13.80;99.90
71672;DHT22;67659;45.554;11.812;2023-03-26T20:26:25;14.00;99.90
71672;DHT22;67659;45.554;11.812;2023-03-26T20:28:51;14.10;99.90
71672;DHT22;67659;45.554;11.812;2023-03-26T20:31:20;14.20;99.90
71672;DHT22;67659;45.554;11.812;2023-03-26T20:33:47;14.10;99.90
71672;DHT22;67659;45.554;11.812;2023-03-26T20:36:14;13.30;99.90
71672;DHT22;67659;45.554;11.812;2023-03-26T20:38:43;12.80;99.90
71672;DHT22;67659;45.554;11.812;2023-03-26T20:41:17;12.60;99.90
71672;DHT22;67659;45.554;11.812;2023-03-26T20:43:44;12.60;99.90
71672;DHT22;67659;45.554;11.812;2023-03-26T20:46:18;12.90;99.90
71672;DHT22;67659;45.554;11.812;2023-03-26T20:48:44;13.20;99.90
71672;DHT22;67659;45.554;11.812;2023-03-26T20:51:12;13.30;99.90
71672;DHT22;67659;45.554;11.812;2023-03-26T20:53:43;13.40;99.90
71672;DHT22;67659;45.554;11.812;2023-03-26T20:56:18;13.50;99.90
71672;DHT22;67659;45.554;11.812;2023-03-26T20:58:45;13.60;99.90
71672;DHT22;67659;45.554;11.812;2023-03-26T21:01:14;13.70;99.90
71672;DHT22;67659;45.554;11.812;2023-03-26T21:03:42;13.60;99.90
71672;DHT22;67659;45.554;11.812;2023-03-26T21:06:11;13.70;99.90
71672;DHT22;67659;45.554;11.812;2023-03-26T21:08:41;13.60;99.90
71672;DHT22;67659;45.554;11.812;2023-03-26T21:17:17;13.70;99.90
71672;DHT22;67659;45.554;11.812;2023-03-26T21:19:44;13.70;99.90
71672;DHT22;67659;45.554;11.812;2023-03-26T21:22:22;13.70;99.90
71672;DHT22;67659;45.554;11.812;2023-03-26T21:25:07;13.70;99.90
71672;DHT22;67659;45.554;11.812;2023-03-26T21:30:20;13.70;99.90
71672;DHT22;67659;45.554;11.812;2023-03-26T21:32:47;13.70;99.90
71672;DHT22;67659;45.554;11.812;2023-03-26T21:35:13;13.70;99.90
71672;DHT22;67659;45.554;11.812;2023-03-26T21:37:41;13.70;99.90
71672;DHT22;67659;45.554;11.812;2023-03-26T21:40:10;13.60;99.90
71672;DHT22;67659;45.554;11.812;2023-03-26T21:42:42;13.70;99.90
71672;DHT22;67659;45.554;11.812;2023-03-26T21:45:08;13.70;99.90
71672;DHT22;67659;45.554;11.812;2023-03-26T21:47:35;13.70;99.90
71672;DHT22;67659;45.554;11.812;2023-03-26T21:50:01;13.70;99.90
71672;DHT22;67659;45.554;11.812;2023-03-26T21:52:27;13.50;99.90
71672;DHT22;67659;45.554;11.812;2023-03-26T21:54:55;13.50;99.90
71672;DHT22;67659;45.554;11.812;2023-03-26T22:00:08;13.60;99.90
71672;DHT22;67659;45.554;11.812;2023-03-26T22:02:59;13.60;99.90
71672;DHT22;67659;45.554;11.812;2023-03-26T22:08:35;13.60;99.90
71672;DHT22;67659;45.554;11.812;2023-03-26T22:11:01;13.50;99.90
71672;DHT22;67659;45.554;11.812;2023-03-26T22:13:27;13.40;99.90
71672;DHT22;67659;45.554;11.812;2023-03-26T22:15:52;13.50;99.90
71672;DHT22;67659;45.554;11.812;2023-03-26T22:18:18;13.50;99.90
71672;DHT22;67659;45.554;11.812;2023-03-26T22:20:47;13.60;99.90
71672;DHT22;67659;45.554;11.812;2023-03-26T22:23:13;13.50;99.90